sensor_id;sensor_type;location;lat;lon;timestamp;P1;durP1;ratioP1;P2;durP2;ratioP2
55672;SDS011;41554;45.366;20.400;2024-01-15T00:02:11;30.08;;;19.88;;
55672;SDS011;41554;45.366;20.400;2024-01-15T00:04:38;31.13;;;23.00;;
55672;SDS011;41554;45.366;20.400;2024-01-15T00:07:04;29.25;;;20.35;;
55672;SDS011;41554;45.366;20.400;2024-01-15T00:09:30;37.45;;;21.52;;
55672;SDS011;41554;45.366;20.400;2024-01-15T00:11:56;30.75;;;21.08;;
55672;SDS011;41554;45.366;20.400;2024-01-15T00:14:23;37.78;;;22.27;;
55672;SDS011;41554;45.366;20.400;2024-01-15T00:16:49;31.13;;;22.33;;
55672;SDS011;41554;45.366;20.400;2024-01-15T00:19:16;36.88;;;22.25;;
55672;SDS011;41554;45.366;20.400;2024-01-15T00:21:43;28.83;;;19.35;;
55672;SDS011;41554;45.366;20.400;2024-01-15T00:24:09;34.38;;;20.63;;
55672;SDS011;41554;45.366;20.400;2024-01-15T00:26:35;29.05;;;21.15;;
55672;SDS011;41554;45.366;20.400;2024-01-15T00:29:01;34.67;;;24.58;;
55672;SDS011;41554;45.366;20.400;2024-01-15T00:31:28;39.88;;;25.13;;
55672;SDS011;41554;45.366;20.400;2024-01-15T00:33:55;41.70;;;25.88;;
55672;SDS011;41554;45.366;20.400;2024-01-15T00:36:21;33.60;;;22.92;;
55672;SDS011;41554;45.366;20.400;2024-01-15T00:38:47;28.23;;;21.98;;
55672;SDS011;41554;45.366;20.400;2024-01-15T00:41:13;43.83;;;25.23;;
55672;SDS011;41554;45.366;20.400;2024-01-15T00:43:39;33.33;;;22.67;;
55672;SDS011;41554;45.366;20.400;2024-01-15T00:46:05;39.95;;;23.20;;
55672;SDS011;41554;45.366;20.400;2024-01-15T00:48:32;40.38;;;24.23;;
55672;SDS011;41554;45.366;20.400;2024-01-15T00:50:58;32.92;;;22.10;;
55672;SDS011;41554;45.366;20.400;2024-01-15T00:53:25;32.95;;;23.77;;
55672;SDS011;41554;45.366;20.400;2024-01-15T00:55:51;32.63;;;22.83;;
55672;SDS011;41554;45.366;20.400;2024-01-15T00:58:18;38.10;;;22.15;;
55672;SDS011;41554;45.366;20.400;2024-01-15T01:00:44;46.45;;;26.67;;
55672;SDS011;41554;45.366;20.400;2024-01-15T01:03:10;34.55;;;22.17;;
55672;SDS011;41554;45.366;20.400;2024-01-15T01:05:36;34.15;;;20.48;;
55672;SDS011;41554;45.366;20.400;2024-01-15T01:08:02;35.40;;;22.40;;
55672;SDS011;41554;45.366;20.400;2024-01-15T01:10:28;32.00;;;21.55;;
55672;SDS011;41554;45.366;20.400;2024-01-15T01:12:55;33.80;;;22.20;;
55672;SDS011;41554;45.366;20.400;2024-01-15T01:15:21;40.40;;;24.10;;
55672;SDS011;41554;45.366;20.400;2024-01-15T01:17:47;38.20;;;26.63;;
55672;SDS011;41554;45.366;20.400;2024-01-15T01:20:13;35.25;;;23.92;;
55672;SDS011;41554;45.366;20.400;2024-01-15T01:22:40;40.25;;;24.17;;
55672;SDS011;41554;45.366;20.400;2024-01-15T01:25:06;40.08;;;24.83;;
55672;SDS011;41554;45.366;20.400;2024-01-15T01:27:32;45.13;;;26.33;;
55672;SDS011;41554;45.366;20.400;2024-01-15T01:29:59;35.55;;;25.45;;
55672;SDS011;41554;45.366;20.400;2024-01-15T01:32:25;38.45;;;26.23;;
55672;SDS011;41554;45.366;20.400;2024-01-15T01:34:51;37.95;;;25.42;;
55672;SDS011;41554;45.366;20.400;2024-01-15T01:37:17;46.13;;;27.63;;
55672;SDS011;41554;45.366;20.400;2024-01-15T01:39:43;38.63;;;22.88;;
55672;SDS011;41554;45.366;20.400;2024-01-15T01:42:10;42.20;;;22.38;;
55672;SDS011;41554;45.366;20.400;2024-01-15T01:44:36;38.58;;;23.98;;
55672;SDS011;41554;45.366;20.400;2024-01-15T01:47:02;39.33;;;23.92;;
55672;SDS011;41554;45.366;20.400;2024-01-15T01:49:29;35.58;;;25.65;;
55672;SDS011;41554;45.366;20.400;2024-01-15T01:51:57;27.45;;;20.98;;
55672;SDS011;41554;45.366;20.400;2024-01-15T01:54:23;43.67;;;25.73;;
55672;SDS011;41554;45.366;20.400;2024-01-15T01:56:49;39.60;;;25.60;;
55672;SDS011;41554;45.366;20.400;2024-01-15T01:59:16;36.47;;;24.75;;
55672;SDS011;41554;45.366;20.400;2024-01-15T02:01:43;56.17;;;27.63;;
55672;SDS011;41554;45.366;20.400;2024-01-15T02:04:10;40.85;;;24.98;;
55672;SDS011;41554;45.366;20.400;2024-01-15T02:06:36;38.60;;;21.85;;
55672;SDS011;41554;45.366;20.400;2024-01-15T02:09:03;34.13;;;21.48;;
55672;SDS011;41554;45.366;20.400;2024-01-15T02:11:30;32.08;;;24.35;;
55672;SDS011;41554;45.366;20.400;2024-01-15T02:13:56;37.85;;;23.58;;
55672;SDS011;41554;45.366;20.400;2024-01-15T02:16:23;36.38;;;23.35;;
55672;SDS011;41554;45.366;20.400;2024-01-15T02:18:49;30.90;;;19.75;;
55672;SDS011;41554;45.366;20.400;2024-01-15T02:21:15;30.60;;;23.52;;
55672;SDS011;41554;45.366;20.400;2024-01-15T02:23:41;46.25;;;26.90;;
55672;SDS011;41554;45.366;20.400;2024-01-15T02:26:07;40.78;;;25.08;;
55672;SDS011;41554;45.366;20.400;2024-01-15T02:28:34;42.72;;;24.45;;
55672;SDS011;41554;45.366;20.400;2024-01-15T02:31:00;29.40;;;22.98;;
55672;SDS011;41554;45.366;20.400;2024-01-15T02:33:26;39.63;;;25.55;;
55672;SDS011;41554;45.366;20.400;2024-01-15T02:35:52;47.83;;;27.98;;
55672;SDS011;41554;45.366;20.400;2024-01-15T02:38:18;35.13;;;25.15;;
55672;SDS011;41554;45.366;20.400;2024-01-15T02:40:44;48.10;;;28.65;;
55672;SDS011;41554;45.366;20.400;2024-01-15T02:43:11;49.17;;;25.30;;
55672;SDS011;41554;45.366;20.400;2024-01-15T02:45:38;41.88;;;28.23;;
55672;SDS011;41554;45.366;20.400;2024-01-15T02:48:05;33.10;;;23.33;;
55672;SDS011;41554;45.366;20.400;2024-01-15T02:50:31;35.08;;;24.23;;
55672;SDS011;41554;45.366;20.400;2024-01-15T02:52:57;35.53;;;21.90;;
55672;SDS011;41554;45.366;20.400;2024-01-15T02:55:23;37.97;;;21.50;;
55672;SDS011;41554;45.366;20.400;2024-01-15T02:57:49;37.08;;;21.15;;
55672;SDS011;41554;45.366;20.400;2024-01-15T03:00:15;35.97;;;22.00;;
55672;SDS011;41554;45.366;20.400;2024-01-15T03:02:44;37.97;;;21.02;;
55672;SDS011;41554;45.366;20.400;2024-01-15T03:05:10;34.83;;;21.85;;
55672;SDS011;41554;45.366;20.400;2024-01-15T03:07:36;28.60;;;19.65;;
55672;SDS011;41554;45.366;20.400;2024-01-15T03:10:02;25.38;;;19.95;;
55672;SDS011;41554;45.366;20.400;2024-01-15T03:12:28;30.70;;;21.85;;
55672;SDS011;41554;45.366;20.400;2024-01-15T03:14:54;31.33;;;17.23;;
55672;SDS011;41554;45.366;20.400;2024-01-15T03:17:20;40.10;;;20.35;;
55672;SDS011;41554;45.366;20.400;2024-01-15T03:19:46;34.92;;;20.35;;
55672;SDS011;41554;45.366;20.400;2024-01-15T03:22:14;29.63;;;20.67;;
55672;SDS011;41554;45.366;20.400;2024-01-15T03:24:40;34.83;;;20.98;;
55672;SDS011;41554;45.366;20.400;2024-01-15T03:27:06;31.20;;;17.10;;
55672;SDS011;41554;45.366;20.400;2024-01-15T03:29:32;34.67;;;21.65;;
55672;SDS011;41554;45.366;20.400;2024-01-15T03:31:59;32.38;;;19.55;;
55672;SDS011;41554;45.366;20.400;2024-01-15T03:34:25;32.20;;;19.48;;
55672;SDS011;41554;45.366;20.400;2024-01-15T03:36:51;27.80;;;18.20;;
55672;SDS011;41554;45.366;20.400;2024-01-15T03:39:17;29.58;;;22.63;;
55672;SDS011;41554;45.366;20.400;2024-01-15T03:41:43;30.52;;;18.55;;
55672;SDS011;41554;45.366;20.400;2024-01-15T03:44:10;26.33;;;17.83;;
55672;SDS011;41554;45.366;20.400;2024-01-15T03:46:36;32.15;;;19.42;;
55672;SDS011;41554;45.366;20.400;2024-01-15T03:49:02;24.05;;;15.00;;
55672;SDS011;41554;45.366;20.400;2024-01-15T03:51:28;36.63;;;18.55;;
55672;SDS011;41554;45.366;20.400;2024-01-15T03:53:54;16.58;;;13.88;;
55672;SDS011;41554;45.366;20.400;2024-01-15T03:56:20;26.98;;;18.15;;
55672;SDS011;41554;45.366;20.400;2024-01-15T03:58:46;24.13;;;15.30;;
55672;SDS011;41554;45.366;20.400;2024-01-15T04:01:12;26.33;;;16.20;;
55672;SDS011;41554;45.366;20.400;2024-01-15T04:03:38;23.92;;;14.60;;
55672;SDS011;41554;45.366;20.400;2024-01-15T04:06:04;24.27;;;14.80;;
55672;SDS011;41554;45.366;20.400;2024-01-15T04:08:30;22.15;;;13.23;;
55672;SDS011;41554;45.366;20.400;2024-01-15T04:10:56;26.27;;;16.88;;
55672;SDS011;41554;45.366;20.400;2024-01-15T04:13:22;19.42;;;14.52;;
55672;SDS011;41554;45.366;20.400;2024-01-15T04:15:48;24.48;;;16.60;;
55672;SDS011;41554;45.366;20.400;2024-01-15T04:18:15;21.23;;;15.57;;
55672;SDS011;41554;45.366;20.400;2024-01-15T04:20:43;23.23;;;16.88;;
55672;SDS011;41554;45.366;20.400;2024-01-15T04:23:09;20.48;;;15.02;;
55672;SDS011;41554;45.366;20.400;2024-01-15T04:25:35;22.50;;;13.77;;
55672;SDS011;41554;45.366;20.400;2024-01-15T04:28:01;25.67;;;14.18;;
55672;SDS011;41554;45.366;20.400;2024-01-15T04:30:27;20.33;;;14.43;;
55672;SDS011;41554;45.366;20.400;2024-01-15T04:32:53;18.15;;;12.38;;
55672;SDS011;41554;45.366;20.400;2024-01-15T04:35:19;28.42;;;14.07;;
55672;SDS011;41554;45.366;20.400;2024-01-15T04:37:45;18.25;;;12.02;;
55672;SDS011;41554;45.366;20.400;2024-01-15T04:40:11;20.77;;;14.23;;
55672;SDS011;41554;45.366;20.400;2024-01-15T04:42:37;18.88;;;11.57;;
55672;SDS011;41554;45.366;20.400;2024-01-15T04:45:04;14.45;;;12.52;;
55672;SDS011;41554;45.366;20.400;2024-01-15T04:47:30;23.83;;;14.68;;
55672;SDS011;41554;45.366;20.400;2024-01-15T04:49:56;18.40;;;12.95;;
55672;SDS011;41554;45.366;20.400;2024-01-15T04:52:22;26.70;;;13.50;;
55672;SDS011;41554;45.366;20.400;2024-01-15T04:54:48;17.13;;;12.73;;
55672;SDS011;41554;45.366;20.400;2024-01-15T04:57:15;17.77;;;10.82;;
55672;SDS011;41554;45.366;20.400;2024-01-15T04:59:41;18.13;;;12.18;;
55672;SDS011;41554;45.366;20.400;2024-01-15T05:02:07;25.70;;;15.13;;
55672;SDS011;41554;45.366;20.400;2024-01-15T05:04:33;24.65;;;11.30;;
55672;SDS011;41554;45.366;20.400;2024-01-15T05:06:59;18.95;;;11.30;;
55672;SDS011;41554;45.366;20.400;2024-01-15T05:09:25;17.92;;;12.32;;
55672;SDS011;41554;45.366;20.400;2024-01-15T05:11:51;17.55;;;13.60;;
55672;SDS011;41554;45.366;20.400;2024-01-15T05:14:17;20.52;;;12.88;;
55672;SDS011;41554;45.366;20.400;2024-01-15T05:16:47;18.65;;;10.43;;
55672;SDS011;41554;45.366;20.400;2024-01-15T05:19:13;14.37;;;9.47;;
55672;SDS011;41554;45.366;20.400;2024-01-15T05:21:39;19.17;;;13.45;;
55672;SDS011;41554;45.366;20.400;2024-01-15T05:24:05;17.13;;;10.38;;
55672;SDS011;41554;45.366;20.400;2024-01-15T05:26:31;15.95;;;10.13;;
55672;SDS011;41554;45.366;20.400;2024-01-15T05:28:57;17.55;;;9.43;;
55672;SDS011;41554;45.366;20.400;2024-01-15T05:31:23;14.65;;;9.68;;
55672;SDS011;41554;45.366;20.400;2024-01-15T05:33:49;19.75;;;11.38;;
55672;SDS011;41554;45.366;20.400;2024-01-15T05:36:15;22.58;;;11.73;;
55672;SDS011;41554;45.366;20.400;2024-01-15T05:38:41;15.30;;;11.98;;
55672;SDS011;41554;45.366;20.400;2024-01-15T05:41:10;12.27;;;8.48;;
55672;SDS011;41554;45.366;20.400;2024-01-15T05:43:36;13.45;;;10.70;;
55672;SDS011;41554;45.366;20.400;2024-01-15T05:46:02;16.23;;;9.85;;
55672;SDS011;41554;45.366;20.400;2024-01-15T05:48:28;15.27;;;11.35;;
55672;SDS011;41554;45.366;20.400;2024-01-15T05:50:54;13.15;;;10.30;;
55672;SDS011;41554;45.366;20.400;2024-01-15T05:53:20;16.35;;;11.07;;
55672;SDS011;41554;45.366;20.400;2024-01-15T05:55:46;15.52;;;9.98;;
55672;SDS011;41554;45.366;20.400;2024-01-15T05:58:12;22.48;;;10.30;;
55672;SDS011;41554;45.366;20.400;2024-01-15T06:00:38;17.92;;;12.50;;
55672;SDS011;41554;45.366;20.400;2024-01-15T06:03:04;15.60;;;7.90;;
55672;SDS011;41554;45.366;20.400;2024-01-15T06:05:30;17.23;;;10.38;;
55672;SDS011;41554;45.366;20.400;2024-01-15T06:07:56;14.88;;;9.02;;
55672;SDS011;41554;45.366;20.400;2024-01-15T06:10:23;19.30;;;12.45;;
55672;SDS011;41554;45.366;20.400;2024-01-15T06:12:49;16.42;;;9.88;;
55672;SDS011;41554;45.366;20.400;2024-01-15T06:15:15;15.13;;;10.23;;
55672;SDS011;41554;45.366;20.400;2024-01-15T06:17:41;21.35;;;11.77;;
55672;SDS011;41554;45.366;20.400;2024-01-15T06:20:07;13.13;;;10.70;;
55672;SDS011;41554;45.366;20.400;2024-01-15T06:22:34;19.20;;;12.93;;
55672;SDS011;41554;45.366;20.400;2024-01-15T06:25:02;17.20;;;11.55;;
55672;SDS011;41554;45.366;20.400;2024-01-15T06:27:28;20.45;;;12.10;;
55672;SDS011;41554;45.366;20.400;2024-01-15T06:29:54;21.77;;;12.98;;
55672;SDS011;41554;45.366;20.400;2024-01-15T06:32:21;15.60;;;9.93;;
55672;SDS011;41554;45.366;20.400;2024-01-15T06:34:47;16.35;;;10.45;;
55672;SDS011;41554;45.366;20.400;2024-01-15T06:37:13;17.27;;;9.98;;
55672;SDS011;41554;45.366;20.400;2024-01-15T06:39:39;16.90;;;11.25;;
55672;SDS011;41554;45.366;20.400;2024-01-15T06:42:05;23.55;;;13.07;;
55672;SDS011;41554;45.366;20.400;2024-01-15T06:44:31;18.00;;;11.68;;
55672;SDS011;41554;45.366;20.400;2024-01-15T06:46:57;16.38;;;10.05;;
55672;SDS011;41554;45.366;20.400;2024-01-15T06:49:28;18.65;;;11.48;;
55672;SDS011;41554;45.366;20.400;2024-01-15T06:51:54;18.88;;;11.05;;
55672;SDS011;41554;45.366;20.400;2024-01-15T06:54:20;11.93;;;10.10;;
55672;SDS011;41554;45.366;20.400;2024-01-15T06:56:47;21.00;;;11.43;;
55672;SDS011;41554;45.366;20.400;2024-01-15T06:59:13;18.00;;;12.63;;
55672;SDS011;41554;45.366;20.400;2024-01-15T07:01:39;16.08;;;11.57;;
55672;SDS011;41554;45.366;20.400;2024-01-15T07:04:05;18.17;;;11.15;;
55672;SDS011;41554;45.366;20.400;2024-01-15T07:06:31;17.95;;;9.82;;
55672;SDS011;41554;45.366;20.400;2024-01-15T07:08:57;14.32;;;10.45;;
55672;SDS011;41554;45.366;20.400;2024-01-15T07:11:23;16.65;;;12.65;;
55672;SDS011;41554;45.366;20.400;2024-01-15T07:13:49;13.98;;;10.20;;
55672;SDS011;41554;45.366;20.400;2024-01-15T07:16:15;16.83;;;10.88;;
55672;SDS011;41554;45.366;20.400;2024-01-15T07:18:42;19.95;;;10.38;;
55672;SDS011;41554;45.366;20.400;2024-01-15T07:21:08;15.05;;;10.00;;
55672;SDS011;41554;45.366;20.400;2024-01-15T07:23:34;17.05;;;11.75;;
55672;SDS011;41554;45.366;20.400;2024-01-15T07:26:00;13.80;;;11.07;;
55672;SDS011;41554;45.366;20.400;2024-01-15T07:28:28;19.35;;;13.15;;
55672;SDS011;41554;45.366;20.400;2024-01-15T07:30:55;19.23;;;13.32;;
55672;SDS011;41554;45.366;20.400;2024-01-15T07:33:21;18.30;;;10.10;;
55672;SDS011;41554;45.366;20.400;2024-01-15T07:35:47;15.40;;;11.50;;
55672;SDS011;41554;45.366;20.400;2024-01-15T07:38:13;17.02;;;11.07;;
55672;SDS011;41554;45.366;20.400;2024-01-15T07:40:39;16.52;;;11.75;;
55672;SDS011;41554;45.366;20.400;2024-01-15T07:43:05;19.38;;;12.23;;
55672;SDS011;41554;45.366;20.400;2024-01-15T07:45:31;14.90;;;11.07;;
55672;SDS011;41554;45.366;20.400;2024-01-15T07:47:57;13.98;;;11.15;;
55672;SDS011;41554;45.366;20.400;2024-01-15T07:50:24;19.70;;;11.98;;
55672;SDS011;41554;45.366;20.400;2024-01-15T07:52:50;18.05;;;10.65;;
55672;SDS011;41554;45.366;20.400;2024-01-15T07:55:16;21.77;;;11.63;;
55672;SDS011;41554;45.366;20.400;2024-01-15T07:57:42;13.80;;;11.32;;
55672;SDS011;41554;45.366;20.400;2024-01-15T08:00:08;15.90;;;11.23;;
55672;SDS011;41554;45.366;20.400;2024-01-15T08:02:35;12.32;;;10.80;;
55672;SDS011;41554;45.366;20.400;2024-01-15T08:05:01;13.88;;;11.27;;
55672;SDS011;41554;45.366;20.400;2024-01-15T08:07:27;13.45;;;10.98;;
55672;SDS011;41554;45.366;20.400;2024-01-15T08:09:53;19.02;;;11.52;;
55672;SDS011;41554;45.366;20.400;2024-01-15T08:12:19;15.65;;;12.40;;
55672;SDS011;41554;45.366;20.400;2024-01-15T08:14:45;18.17;;;11.75;;
55672;SDS011;41554;45.366;20.400;2024-01-15T08:17:11;20.27;;;12.57;;
55672;SDS011;41554;45.366;20.400;2024-01-15T08:19:37;19.35;;;14.38;;
55672;SDS011;41554;45.366;20.400;2024-01-15T08:22:06;16.02;;;11.43;;
55672;SDS011;41554;45.366;20.400;2024-01-15T08:24:32;24.15;;;12.20;;
55672;SDS011;41554;45.366;20.400;2024-01-15T08:26:58;15.93;;;11.00;;
55672;SDS011;41554;45.366;20.400;2024-01-15T08:29:24;19.50;;;11.48;;
55672;SDS011;41554;45.366;20.400;2024-01-15T08:31:50;19.35;;;12.00;;
55672;SDS011;41554;45.366;20.400;2024-01-15T08:34:16;22.15;;;12.85;;
55672;SDS011;41554;45.366;20.400;2024-01-15T08:36:43;13.73;;;9.88;;
55672;SDS011;41554;45.366;20.400;2024-01-15T08:39:09;12.80;;;10.65;;
55672;SDS011;41554;45.366;20.400;2024-01-15T08:41:35;13.02;;;11.18;;
55672;SDS011;41554;45.366;20.400;2024-01-15T08:44:01;17.42;;;10.93;;
55672;SDS011;41554;45.366;20.400;2024-01-15T08:46:28;18.95;;;13.40;;
55672;SDS011;41554;45.366;20.400;2024-01-15T08:48:54;13.13;;;10.65;;
55672;SDS011;41554;45.366;20.400;2024-01-15T08:51:20;17.95;;;12.88;;
55672;SDS011;41554;45.366;20.400;2024-01-15T08:53:46;17.23;;;12.13;;
55672;SDS011;41554;45.366;20.400;2024-01-15T08:56:12;16.40;;;10.93;;
55672;SDS011;41554;45.366;20.400;2024-01-15T08:58:38;15.05;;;10.80;;
55672;SDS011;41554;45.366;20.400;2024-01-15T09:01:04;15.85;;;11.32;;
55672;SDS011;41554;45.366;20.400;2024-01-15T09:03:31;18.25;;;11.20;;
55672;SDS011;41554;45.366;20.400;2024-01-15T09:05:58;20.45;;;13.77;;
55672;SDS011;41554;45.366;20.400;2024-01-15T09:08:25;18.48;;;12.52;;
55672;SDS011;41554;45.366;20.400;2024-01-15T09:10:55;15.65;;;11.52;;
55672;SDS011;41554;45.366;20.400;2024-01-15T09:13:21;18.48;;;12.07;;
55672;SDS011;41554;45.366;20.400;2024-01-15T09:15:47;19.00;;;13.05;;
55672;SDS011;41554;45.366;20.400;2024-01-15T09:18:13;14.73;;;10.80;;
55672;SDS011;41554;45.366;20.400;2024-01-15T09:20:39;18.05;;;11.02;;
55672;SDS011;41554;45.366;20.400;2024-01-15T09:23:05;20.55;;;13.35;;
55672;SDS011;41554;45.366;20.400;2024-01-15T09:25:32;16.60;;;11.23;;
55672;SDS011;41554;45.366;20.400;2024-01-15T09:27:58;15.70;;;12.07;;
55672;SDS011;41554;45.366;20.400;2024-01-15T09:30:24;19.85;;;13.02;;
55672;SDS011;41554;45.366;20.400;2024-01-15T09:32:50;20.35;;;11.35;;
55672;SDS011;41554;45.366;20.400;2024-01-15T09:35:16;19.83;;;13.02;;
55672;SDS011;41554;45.366;20.400;2024-01-15T09:37:42;17.75;;;13.25;;
55672;SDS011;41554;45.366;20.400;2024-01-15T09:40:08;27.73;;;15.70;;
55672;SDS011;41554;45.366;20.400;2024-01-15T09:42:39;27.50;;;17.13;;
55672;SDS011;41554;45.366;20.400;2024-01-15T09:45:05;26.00;;;15.52;;
55672;SDS011;41554;45.366;20.400;2024-01-15T09:47:31;19.40;;;14.35;;
55672;SDS011;41554;45.366;20.400;2024-01-15T09:49:58;20.48;;;13.75;;
55672;SDS011;41554;45.366;20.400;2024-01-15T09:52:24;24.17;;;16.58;;
55672;SDS011;41554;45.366;20.400;2024-01-15T09:54:50;22.95;;;17.08;;
55672;SDS011;41554;45.366;20.400;2024-01-15T09:57:17;24.20;;;16.65;;
55672;SDS011;41554;45.366;20.400;2024-01-15T09:59:43;26.38;;;14.35;;
55672;SDS011;41554;45.366;20.400;2024-01-15T10:02:11;20.83;;;12.93;;
55672;SDS011;41554;45.366;20.400;2024-01-15T10:04:39;14.03;;;10.73;;
55672;SDS011;41554;45.366;20.400;2024-01-15T10:07:05;26.92;;;15.15;;
55672;SDS011;41554;45.366;20.400;2024-01-15T10:09:32;17.55;;;12.45;;
55672;SDS011;41554;45.366;20.400;2024-01-15T10:11:58;16.65;;;13.88;;
55672;SDS011;41554;45.366;20.400;2024-01-15T10:14:25;21.92;;;16.08;;
55672;SDS011;41554;45.366;20.400;2024-01-15T10:16:51;24.55;;;17.90;;
55672;SDS011;41554;45.366;20.400;2024-01-15T10:19:17;27.92;;;17.65;;
55672;SDS011;41554;45.366;20.400;2024-01-15T10:21:43;20.58;;;14.38;;
55672;SDS011;41554;45.366;20.400;2024-01-15T10:24:09;20.77;;;15.55;;
55672;SDS011;41554;45.366;20.400;2024-01-15T10:26:35;23.20;;;14.90;;
55672;SDS011;41554;45.366;20.400;2024-01-15T10:29:01;16.63;;;11.88;;
55672;SDS011;41554;45.366;20.400;2024-01-15T10:31:27;19.95;;;12.93;;
55672;SDS011;41554;45.366;20.400;2024-01-15T10:33:53;21.08;;;12.38;;
55672;SDS011;41554;45.366;20.400;2024-01-15T10:36:20;13.45;;;10.05;;
55672;SDS011;41554;45.366;20.400;2024-01-15T10:38:46;21.10;;;11.48;;
55672;SDS011;41554;45.366;20.400;2024-01-15T10:41:12;23.83;;;13.13;;
55672;SDS011;41554;45.366;20.400;2024-01-15T10:43:39;17.00;;;12.40;;
55672;SDS011;41554;45.366;20.400;2024-01-15T10:46:06;19.08;;;14.30;;
55672;SDS011;41554;45.366;20.400;2024-01-15T10:48:32;27.05;;;15.20;;
55672;SDS011;41554;45.366;20.400;2024-01-15T10:51:00;23.95;;;12.98;;
55672;SDS011;41554;45.366;20.400;2024-01-15T10:53:35;15.82;;;11.15;;
55672;SDS011;41554;45.366;20.400;2024-01-15T10:56:01;22.23;;;14.10;;
55672;SDS011;41554;45.366;20.400;2024-01-15T10:58:28;19.50;;;11.05;;
55672;SDS011;41554;45.366;20.400;2024-01-15T11:00:57;19.13;;;11.45;;
55672;SDS011;41554;45.366;20.400;2024-01-15T11:03:23;23.10;;;13.23;;
55672;SDS011;41554;45.366;20.400;2024-01-15T11:05:49;17.95;;;12.70;;
55672;SDS011;41554;45.366;20.400;2024-01-15T11:08:16;19.13;;;13.55;;
55672;SDS011;41554;45.366;20.400;2024-01-15T11:10:47;22.02;;;14.48;;
55672;SDS011;41554;45.366;20.400;2024-01-15T11:18:28;16.48;;;10.90;;
55672;SDS011;41554;45.366;20.400;2024-01-15T11:23:55;19.10;;;13.30;;
55672;SDS011;41554;45.366;20.400;2024-01-15T11:28:56;23.67;;;15.00;;
55672;SDS011;41554;45.366;20.400;2024-01-15T11:31:56;19.63;;;13.75;;
55672;SDS011;41554;45.366;20.400;2024-01-15T11:34:13;19.92;;;14.15;;
55672;SDS011;41554;45.366;20.400;2024-01-15T11:41:58;15.15;;;12.48;;
55672;SDS011;41554;45.366;20.400;2024-01-15T11:44:25;18.98;;;15.32;;
55672;SDS011;41554;45.366;20.400;2024-01-15T11:47:07;21.83;;;13.43;;
55672;SDS011;41554;45.366;20.400;2024-01-15T11:52:22;20.38;;;14.85;;
55672;SDS011;41554;45.366;20.400;2024-01-15T12:00:08;25.75;;;13.68;;
55672;SDS011;41554;45.366;20.400;2024-01-15T12:05:01;25.02;;;16.17;;
55672;SDS011;41554;45.366;20.400;2024-01-15T12:07:28;20.92;;;14.27;;
55672;SDS011;41554;45.366;20.400;2024-01-15T12:09:54;21.40;;;13.93;;
55672;SDS011;41554;45.366;20.400;2024-01-15T12:15:18;27.10;;;21.27;;
55672;SDS011;41554;45.366;20.400;2024-01-15T12:17:45;33.50;;;20.85;;
55672;SDS011;41554;45.366;20.400;2024-01-15T12:20:12;26.83;;;18.83;;
55672;SDS011;41554;45.366;20.400;2024-01-15T12:22:38;22.30;;;16.95;;
55672;SDS011;41554;45.366;20.400;2024-01-15T12:25:05;22.48;;;16.27;;
55672;SDS011;41554;45.366;20.400;2024-01-15T12:27:31;23.30;;;18.45;;
55672;SDS011;41554;45.366;20.400;2024-01-15T12:29:58;29.63;;;18.23;;
55672;SDS011;41554;45.366;20.400;2024-01-15T12:32:24;25.98;;;16.60;;
55672;SDS011;41554;45.366;20.400;2024-01-15T12:34:50;23.48;;;16.55;;
55672;SDS011;41554;45.366;20.400;2024-01-15T12:37:19;25.85;;;16.80;;
55672;SDS011;41554;45.366;20.400;2024-01-15T12:39:46;22.83;;;15.18;;
55672;SDS011;41554;45.366;20.400;2024-01-15T12:42:13;21.08;;;15.95;;
55672;SDS011;41554;45.366;20.400;2024-01-15T12:44:41;22.15;;;18.08;;
55672;SDS011;41554;45.366;20.400;2024-01-15T12:47:08;26.10;;;17.90;;
55672;SDS011;41554;45.366;20.400;2024-01-15T12:49:36;24.15;;;17.02;;
55672;SDS011;41554;45.366;20.400;2024-01-15T12:52:02;21.52;;;14.75;;
55672;SDS011;41554;45.366;20.400;2024-01-15T12:54:28;19.52;;;15.88;;
55672;SDS011;41554;45.366;20.400;2024-01-15T12:56:54;18.23;;;13.77;;
55672;SDS011;41554;45.366;20.400;2024-01-15T12:59:20;19.73;;;11.60;;
55672;SDS011;41554;45.366;20.400;2024-01-15T13:01:46;20.27;;;13.45;;
55672;SDS011;41554;45.366;20.400;2024-01-15T13:04:24;22.27;;;13.85;;
55672;SDS011;41554;45.366;20.400;2024-01-15T13:06:51;19.20;;;13.65;;
55672;SDS011;41554;45.366;20.400;2024-01-15T13:09:17;15.25;;;10.90;;
55672;SDS011;41554;45.366;20.400;2024-01-15T13:11:44;15.70;;;11.10;;
55672;SDS011;41554;45.366;20.400;2024-01-15T13:14:10;16.05;;;11.30;;
55672;SDS011;41554;45.366;20.400;2024-01-15T13:16:36;15.27;;;10.82;;
55672;SDS011;41554;45.366;20.400;2024-01-15T13:19:02;16.85;;;11.40;;
55672;SDS011;41554;45.366;20.400;2024-01-15T13:21:29;15.30;;;11.13;;
55672;SDS011;41554;45.366;20.400;2024-01-15T13:23:55;15.48;;;9.75;;
55672;SDS011;41554;45.366;20.400;2024-01-15T13:26:21;15.98;;;10.98;;
55672;SDS011;41554;45.366;20.400;2024-01-15T13:28:47;19.85;;;12.57;;
55672;SDS011;41554;45.366;20.400;2024-01-15T13:31:14;16.48;;;10.52;;
55672;SDS011;41554;45.366;20.400;2024-01-15T13:33:40;14.25;;;9.65;;
55672;SDS011;41554;45.366;20.400;2024-01-15T13:36:06;11.32;;;8.73;;
55672;SDS011;41554;45.366;20.400;2024-01-15T13:38:38;15.40;;;9.45;;
55672;SDS011;41554;45.366;20.400;2024-01-15T13:41:04;11.05;;;9.63;;
55672;SDS011;41554;45.366;20.400;2024-01-15T13:43:31;11.88;;;9.98;;
55672;SDS011;41554;45.366;20.400;2024-01-15T13:45:58;15.30;;;9.82;;
55672;SDS011;41554;45.366;20.400;2024-01-15T13:48:24;13.10;;;9.63;;
55672;SDS011;41554;45.366;20.400;2024-01-15T13:50:51;12.52;;;7.68;;
55672;SDS011;41554;45.366;20.400;2024-01-15T13:53:17;15.70;;;10.48;;
55672;SDS011;41554;45.366;20.400;2024-01-15T13:55:44;16.40;;;10.43;;
55672;SDS011;41554;45.366;20.400;2024-01-15T13:58:10;15.50;;;11.77;;
55672;SDS011;41554;45.366;20.400;2024-01-15T14:00:38;17.25;;;10.07;;
55672;SDS011;41554;45.366;20.400;2024-01-15T14:03:04;16.38;;;9.85;;
55672;SDS011;41554;45.366;20.400;2024-01-15T14:05:30;16.08;;;10.15;;
55672;SDS011;41554;45.366;20.400;2024-01-15T14:07:56;17.83;;;11.10;;
55672;SDS011;41554;45.366;20.400;2024-01-15T14:10:23;15.68;;;10.50;;
55672;SDS011;41554;45.366;20.400;2024-01-15T14:12:49;20.88;;;12.55;;
55672;SDS011;41554;45.366;20.400;2024-01-15T14:15:16;19.30;;;12.15;;
55672;SDS011;41554;45.366;20.400;2024-01-15T14:17:42;18.48;;;12.25;;
55672;SDS011;41554;45.366;20.400;2024-01-15T14:20:08;16.60;;;11.60;;
55672;SDS011;41554;45.366;20.400;2024-01-15T14:22:35;13.90;;;11.25;;
55672;SDS011;41554;45.366;20.400;2024-01-15T14:25:01;13.75;;;9.68;;
55672;SDS011;41554;45.366;20.400;2024-01-15T14:27:27;15.10;;;11.95;;
55672;SDS011;41554;45.366;20.400;2024-01-15T14:29:53;16.35;;;11.30;;
55672;SDS011;41554;45.366;20.400;2024-01-15T14:32:19;15.63;;;11.13;;
55672;SDS011;41554;45.366;20.400;2024-01-15T14:34:45;12.35;;;8.80;;
55672;SDS011;41554;45.366;20.400;2024-01-15T14:37:11;11.00;;;7.70;;